WetterOnline ( https://www.wetteronline.de )

Wetter aktuell Schwedt

Aktuelles Wetter: Angermünde (55m)

6-stündlich | Neueste Meldungen
Ortszeit Temperatur Wetter
Mo, 05.12. 19:00 2.3° C Nebel
Mo, 05.12. 13:00 2.0° C bedeckt
Mo, 05.12. 7:00 1.5° C leichter Regen
Mo, 05.12. 1:00 1.6° C bedeckt
So, 04.12. 19:00 1.1° C Nebel
So, 04.12. 13:00 0.5° C bedeckt
So, 04.12. 7:00 -0.4° C bedeckt
So, 04.12. 1:00 -1.2° C bedeckt
Ortszeit Temperatur Wetter
Mo, 05.12. 19:30 2.4° C Nebel
Mo, 05.12. 19:10 2.4° C Nebel
Mo, 05.12. 19:00 2.3° C Nebel
Mo, 05.12. 18:50 2.3° C Nebel
Mo, 05.12. 18:40 2.3° C Nebel
Mo, 05.12. 18:30 2.3° C Nebel
Mo, 05.12. 18:00 2.3° C Dunst
Mo, 05.12. 17:30 2.3° C bedeckt
Mo, 05.12. 17:00 2.3° C bedeckt
Mo, 05.12. 16:30 2.3° C bedeckt
Ortszeit Relative Feuchte Sichtweite
Mo, 05.12. 19:00 99% 0.8 km
Mo, 05.12. 13:00 98% 2.1 km
Mo, 05.12. 7:00 98% 1.8 km
Mo, 05.12. 1:00 98% 1.2 km
So, 04.12. 19:00 99% 0.5 km
So, 04.12. 13:00 97% 1.6 km
So, 04.12. 7:00 96% 1.8 km
So, 04.12. 1:00 92% 3.7 km
Ortszeit Relative Feuchte Sichtweite
Mo, 05.12. 19:30 99% 0.8 km
Mo, 05.12. 19:10 99% -
Mo, 05.12. 19:00 99% 0.8 km
Mo, 05.12. 18:50 99% -
Mo, 05.12. 18:40 99% -
Mo, 05.12. 18:30 99% 0.8 km
Mo, 05.12. 18:00 98% 1.0 km
Mo, 05.12. 17:30 98% 1.3 km
Mo, 05.12. 17:00 98% 1.3 km
Mo, 05.12. 16:30 98% 1.7 km
Ortszeit Niederschlagsmenge Niederschlagsart
Mo, 05.12. 19:00 6 l/m2 in 12 Std. Regen
Mo, 05.12. 13:00 6 l/m2 in 6 Std. Regen
Mo, 05.12. 7:00 0.5 l/m2 in 12 Std. Regen
Mo, 05.12. 1:00 0.0 l/m2 in 6 Std. -
So, 04.12. 19:00 0.1 l/m2 in 12 Std. -
So, 04.12. 13:00 0.1 l/m2 in 6 Std. Sprühregen
So, 04.12. 7:00 0.1 l/m2 in 12 Std. Sprühregen
So, 04.12. 1:00 0.1 l/m2 in 6 Std. Schnee, Sprühregen
Ortszeit Niederschlagsmenge Niederschlagsart
Mo, 05.12. 19:30 0.0 l/m2 in 30 Min -
Mo, 05.12. 19:10 keine Meldung -
Mo, 05.12. 19:00 0.0 l/m2 in 1 Std. Regen
Mo, 05.12. 18:50 keine Meldung -
Mo, 05.12. 18:40 keine Meldung -
Mo, 05.12. 18:30 0.0 l/m2 in 30 Min -
Mo, 05.12. 18:00 <0.05 l/m2 in 1 Std. -
Mo, 05.12. 17:30 <0.05 l/m2 in 30 Min -
Mo, 05.12. 17:00 0.1 l/m2 in 1 Std. -
Mo, 05.12. 16:30 0.1 l/m2 in 30 Min -
Ortszeit Stärke Spitze Richtung
km/h Bft. km/h Grad Sektor
Mo, 05.12. 19:00 6 1 15 160° S
Mo, 05.12. 13:00 11 2 18 90° O
Mo, 05.12. 7:00 13 3 26 90° O
Mo, 05.12. 1:00 14 3 25 70° O
So, 04.12. 19:00 11 2 25 60° NO
So, 04.12. 13:00 13 3 20 30° NO
So, 04.12. 7:00 11 2 18 50° NO
So, 04.12. 1:00 9 2 17 50° NO
Ortszeit Stärke Spitze Richtung
km/h Bft. km/h Grad Sektor
Mo, 05.12. 19:30 6 1 9 160° S
Mo, 05.12. 19:10 7 2 - 160° S
Mo, 05.12. 19:00 6 1 11 160° S
Mo, 05.12. 18:50 6 1 - 160° S
Mo, 05.12. 18:40 7 2 - 160° S
Mo, 05.12. 18:30 7 2 11 150° SO
Mo, 05.12. 18:00 7 2 14 130° SO
Mo, 05.12. 17:30 7 2 14 130° SO
Mo, 05.12. 17:00 7 2 11 130° SO
Mo, 05.12. 16:30 7 2 11 120° SO
Ortszeit Untergrenze Bedeckung Gattung
total tief tief mittel hoch
Mo, 05.12. 19:00 30 m 8/8 8/8 - - -
Mo, 05.12. 13:00 90 m 8/8 8/8 - - -
Mo, 05.12. 7:00 60 m 7/8 7/8 - - -
Mo, 05.12. 1:00 60 m 8/8 8/8 - - -
So, 04.12. 19:00 30 m 8/8 8/8 - - -
So, 04.12. 13:00 30 m 8/8 8/8 - - -
So, 04.12. 7:00 90 m 8/8 8/8 - - -
So, 04.12. 1:00 210 m 8/8 8/8 - - -
Ortszeit Bedeckungsgrad in Achtel und Wolkenuntergrenze
Mo, 05.12. 19:30 8(30m)
Mo, 05.12. 19:10 8
Mo, 05.12. 19:00 8(30m)
Mo, 05.12. 18:50 8(30m)
Mo, 05.12. 18:40 8
Mo, 05.12. 18:30 8(30m)
Mo, 05.12. 18:00 8(60m)
Mo, 05.12. 17:30 8(60m)
Mo, 05.12. 17:00 8(60m)
Mo, 05.12. 16:30 8(60m)
Ortszeit Luftdruck NN (hPa) Tendenz (hPa in 3 Std.)
Mo, 05.12. 19:00 1018 - 0,3
Mo, 05.12. 13:00 1019 - 1,0
Mo, 05.12. 7:00 1020 - 0,3
Mo, 05.12. 1:00 1020 - 0,6
So, 04.12. 19:00 1021 + 0,2
So, 04.12. 13:00 1022 - 1,2
So, 04.12. 7:00 1023 - 0,5
So, 04.12. 1:00 1024 - 0,7
Ortszeit Luftdruck NN (hPa) Tendenz (hPa in 3 Std.)
Mo, 05.12. 19:30 1018 - 0,5
Mo, 05.12. 19:10 1018 keine Meldung
Mo, 05.12. 19:00 1018 - 0,3
Mo, 05.12. 18:50 1018 keine Meldung
Mo, 05.12. 18:40 1018 keine Meldung
Mo, 05.12. 18:30 1018 - 0,2
Mo, 05.12. 18:00 1018 - 0,2
Mo, 05.12. 17:30 1019 - 0,2
Mo, 05.12. 17:00 1019 - 0,2
Mo, 05.12. 16:30 1019 - 0,2
Ortszeit Schneehöhe (cm)
Mo, 05.12. 19:00 0
Mo, 05.12. 13:00 0
Mo, 05.12. 7:00 0
Mo, 05.12. 1:00 0
So, 04.12. 19:00 0
So, 04.12. 13:00 0
So, 04.12. 7:00 1
So, 04.12. 1:00 1
Ortszeit Schneehöhe (cm)
Mo, 05.12. 19:30 0
Mo, 05.12. 19:10 0
Mo, 05.12. 19:00 0
Mo, 05.12. 18:50 0
Mo, 05.12. 18:40 0
Mo, 05.12. 18:30 0
Mo, 05.12. 18:00 0
Mo, 05.12. 17:30 0
Mo, 05.12. 17:00 0
Mo, 05.12. 16:30 0
Link zu dieser Seite / Seite empfehlen

Das Wetter in ...